Time,TemperatureF,DewpointF,PressureIn,WindDirection,WindDirectionDegrees,WindSpeedMPH,WindSpeedGustMPH,Humidity,HourlyPrecipIn,Conditions,Clouds,dailyrainin,SoftwareType,DateUTC
2013-12-23 00:01:00,56.1,55.6,27.46,East,92,0.0,0.0,98,0.04,,---,0.00,VWS V14.01,2013-12-23 05:01:00,
2013-12-23 00:06:00,56.3,55.8,27.46,East,97,0.0,0.0,98,0.08,,---,0.04,VWS V14.01,2013-12-23 05:06:00,
2013-12-23 00:11:00,56.1,55.6,27.46,East,97,0.0,0.0,98,0.08,,---,0.04,VWS V14.01,2013-12-23 05:11:00,
2013-12-23 00:16:00,56.1,55.6,27.46,East,97,0.0,0.0,98,0.08,,---,0.04,VWS V14.01,2013-12-23 05:16:00,
2013-12-23 00:21:00,56.3,55.8,27.46,East,97,0.0,0.0,98,0.08,,---,0.04,VWS V14.01,2013-12-23 05:21:00,
2013-12-23 00:26:00,56.3,55.8,27.46,East,97,0.0,0.0,98,0.08,,---,0.04,VWS V14.01,2013-12-23 05:26:00,
2013-12-23 00:31:00,56.3,55.8,27.46,East,97,0.0,0.0,98,0.08,,---,0.08,VWS V14.01,2013-12-23 05:31:00,
2013-12-23 00:36:00,56.3,55.8,27.46,East,97,0.0,0.0,98,0.08,,---,0.08,VWS V14.01,2013-12-23 05:36:00,
2013-12-23 00:41:00,56.3,55.8,27.46,East,97,3.1,3.1,98,0.12,,---,0.12,VWS V14.01,2013-12-23 05:41:00,
2013-12-23 00:46:00,56.1,55.6,27.46,WNW,301,5.4,5.4,98,0.12,,---,0.12,VWS V14.01,2013-12-23 05:46:00,
2013-12-23 00:51:00,55.9,55.4,27.46,West,277,2.7,2.7,98,0.12,,---,0.12,VWS V14.01,2013-12-23 05:51:00,
2013-12-23 00:56:00,55.9,55.4,27.46,WNW,294,0.0,0.0,98,0.12,,---,0.12,VWS V14.01,2013-12-23 05:56:00,
2013-12-23 01:01:00,55.8,55.2,27.46,WNW,294,0.0,0.0,98,0.12,,---,0.12,VWS V14.01,2013-12-23 06:01:00,
2013-12-23 01:06:00,55.8,55.2,27.46,WNW,294,0.0,0.0,98,0.08,,---,0.12,VWS V14.01,2013-12-23 06:06:00,
2013-12-23 01:11:00,55.8,55.2,27.46,ENE,62,0.0,2.2,98,0.08,,---,0.12,VWS V14.01,2013-12-23 06:11:00,
2013-12-23 01:16:00,55.8,55.2,27.46,ENE,63,0.0,0.0,98,0.08,,---,0.12,VWS V14.01,2013-12-23 06:16:00,
2013-12-23 01:21:00,55.8,55.2,27.46,ENE,63,0.0,0.0,98,0.08,,---,0.12,VWS V14.01,2013-12-23 06:21:00,
2013-12-23 01:26:00,55.8,55.2,27.46,ENE,63,0.0,0.0,98,0.08,,---,0.12,VWS V14.01,2013-12-23 06:26:00,
2013-12-23 01:31:00,55.8,55.2,27.49,ENE,63,0.0,0.0,98,0.08,,---,0.16,VWS V14.01,2013-12-23 06:31:00,
2013-12-23 01:36:00,55.8,55.2,27.49,ENE,62,0.0,0.0,98,0.08,,---,0.16,VWS V14.01,2013-12-23 06:36:00,
2013-12-23 01:41:00,55.8,55.2,27.49,ENE,63,0.0,0.0,98,0.08,,---,0.20,VWS V14.01,2013-12-23 06:41:00,
2013-12-23 01:46:00,55.8,55.2,27.46,ENE,63,0.0,0.0,98,0.08,,---,0.20,VWS V14.01,2013-12-23 06:46:00,
2013-12-23 01:51:00,55.8,55.2,27.46,ENE,63,0.0,0.0,98,0.08,,---,0.20,VWS V14.01,2013-12-23 06:51:00,
2013-12-23 01:56:00,55.8,55.2,27.46,ENE,63,0.0,0.0,98,0.08,,---,0.20,VWS V14.01,2013-12-23 06:56:00,
2013-12-23 02:02:00,55.8,55.2,27.46,ENE,63,0.0,0.0,98,0.08,,---,0.20,VWS V14.01,2013-12-23 07:02:00,
2013-12-23 02:07:00,55.6,55.0,27.46,ENE,63,0.0,0.0,98,0.08,,---,0.20,VWS V14.01,2013-12-23 07:07:00,
2013-12-23 02:12:00,55.6,55.0,27.46,ENE,63,0.0,0.0,98,0.08,,---,0.20,VWS V14.01,2013-12-23 07:12:00,
2013-12-23 02:17:00,55.6,55.0,27.46,ENE,63,0.0,0.0,98,0.08,,---,0.20,VWS V14.01,2013-12-23 07:17:00,
2013-12-23 02:22:00,55.4,54.8,27.46,ENE,63,0.0,0.0,98,0.08,,---,0.20,VWS V14.01,2013-12-23 07:22:00,
2013-12-23 02:27:00,55.2,54.7,27.46,ENE,63,0.0,0.0,98,0.08,,---,0.20,VWS V14.01,2013-12-23 07:27:00,
2013-12-23 02:32:00,55.2,54.7,27.46,ENE,63,0.0,0.0,98,0.04,,---,0.20,VWS V14.01,2013-12-23 07:32:00,
2013-12-23 02:37:00,55.0,54.5,27.46,ENE,63,0.0,0.0,98,0.04,,---,0.20,VWS V14.01,2013-12-23 07:37:00,
2013-12-23 02:42:00,54.9,54.3,27.46,ENE,63,0.0,0.0,98,0.00,,---,0.20,VWS V14.01,2013-12-23 07:42:00,
2013-12-23 02:47:00,54.9,54.3,27.46,ENE,63,0.0,0.0,98,0.00,,---,0.20,VWS V14.01,2013-12-23 07:47:00,
2013-12-23 02:52:00,54.7,54.1,27.46,ENE,63,0.0,0.0,98,0.00,,---,0.20,VWS V14.01,2013-12-23 07:52:00,
2013-12-23 02:57:00,54.7,54.1,27.46,ENE,63,0.0,0.0,98,0.00,,---,0.20,VWS V14.01,2013-12-23 07:57:00,
2013-12-23 03:02:00,54.5,54.0,27.46,ENE,63,0.0,0.0,98,0.00,,---,0.20,VWS V14.01,2013-12-23 08:02:00,
2013-12-23 03:07:00,54.5,54.0,27.46,ENE,63,0.0,0.0,98,0.00,,---,0.20,VWS V14.01,2013-12-23 08:07:00,
2013-12-23 03:12:00,54.5,54.0,27.46,ENE,63,0.0,0.0,98,0.00,,---,0.20,VWS V14.01,2013-12-23 08:12:00,
2013-12-23 03:17:00,54.3,53.8,27.46,ENE,63,0.0,0.0,98,0.00,,---,0.20,VWS V14.01,2013-12-23 08:17:00,
2013-12-23 03:22:00,54.1,53.6,27.46,ENE,63,0.0,0.0,98,0.00,,---,0.20,VWS V14.01,2013-12-23 08:22:00,
2013-12-23 03:27:00,54.1,53.6,27.46,ENE,63,0.0,0.0,98,0.00,,---,0.20,VWS V14.01,2013-12-23 08:27:00,
2013-12-23 03:32:00,54.0,53.4,27.46,ENE,63,0.0,0.0,98,0.00,,---,0.20,VWS V14.01,2013-12-23 08:32:00,
2013-12-23 03:37:00,54.0,53.4,27.46,ENE,63,0.0,0.0,98,0.00,,---,0.20,VWS V14.01,2013-12-23 08:37:00,
2013-12-23 03:42:00,54.0,53.4,27.46,ENE,63,0.0,0.0,98,0.00,,---,0.20,VWS V14.01,2013-12-23 08:42:00,
2013-12-23 03:47:00,53.8,53.2,27.46,ENE,63,0.0,0.0,98,0.00,,---,0.20,VWS V14.01,2013-12-23 08:47:00,
2013-12-23 03:52:00,53.8,53.2,27.46,ENE,63,0.0,0.0,98,0.00,,---,0.20,VWS V14.01,2013-12-23 08:52:00,
2013-12-23 03:57:00,53.8,53.2,27.46,ENE,63,0.0,0.0,98,0.00,,---,0.20,VWS V14.01,2013-12-23 08:57:00,
2013-12-23 04:02:00,53.8,53.2,27.46,ENE,63,0.0,0.0,98,0.00,,---,0.20,VWS V14.01,2013-12-23 09:02:00,
2013-12-23 04:07:00,53.8,53.2,27.46,ENE,63,0.0,0.0,98,0.00,,---,0.20,VWS V14.01,2013-12-23 09:07:00,
2013-12-23 04:12:00,53.8,53.2,27.46,ENE,63,0.0,0.0,98,0.00,,---,0.20,VWS V14.01,2013-12-23 09:12:00,
2013-12-23 04:17:00,53.8,53.2,27.46,ENE,63,0.0,0.0,98,0.00,,---,0.20,VWS V14.01,2013-12-23 09:17:00,
2013-12-23 04:22:00,53.6,53.0,27.46,ENE,62,0.0,0.0,98,0.00,,---,0.20,VWS V14.01,2013-12-23 09:22:00,
2013-12-23 04:27:00,53.6,53.0,27.46,ENE,63,0.0,0.0,98,0.00,,---,0.20,VWS V14.01,2013-12-23 09:27:00,
2013-12-23 04:32:00,53.6,53.0,27.46,ENE,63,0.0,0.0,98,0.00,,---,0.20,VWS V14.01,2013-12-23 09:32:00,
2013-12-23 04:37:00,53.6,53.0,27.46,ENE,63,0.0,0.0,98,0.00,,---,0.20,VWS V14.01,2013-12-23 09:37:00,
2013-12-23 04:42:00,53.4,52.9,27.46,ENE,63,0.0,0.0,98,0.00,,---,0.20,VWS V14.01,2013-12-23 09:42:00,
2013-12-23 04:47:00,53.6,53.0,27.43,ENE,62,0.0,0.0,98,0.00,,---,0.20,VWS V14.01,2013-12-23 09:47:00,
2013-12-23 04:52:00,53.4,52.9,27.43,ENE,63,0.0,0.0,98,0.00,,---,0.20,VWS V14.01,2013-12-23 09:52:00,
2013-12-23 04:57:00,53.4,52.9,27.43,ENE,63,0.0,0.0,98,0.00,,---,0.20,VWS V14.01,2013-12-23 09:57:00,
2013-12-23 05:02:00,53.6,53.0,27.46,ENE,63,0.0,0.0,98,0.00,,---,0.20,VWS V14.01,2013-12-23 10:02:00,
2013-12-23 05:07:00,53.6,53.0,27.46,ENE,63,0.0,0.0,98,0.00,,---,0.20,VWS V14.01,2013-12-23 10:07:00,
2013-12-23 05:12:00,53.6,53.0,27.46,ENE,63,0.0,0.0,98,0.00,,---,0.20,VWS V14.01,2013-12-23 10:12:00,
2013-12-23 05:17:00,53.6,53.0,27.46,ENE,63,0.0,0.0,98,0.00,,---,0.20,VWS V14.01,2013-12-23 10:17:00,
2013-12-23 05:22:00,53.6,53.0,27.46,ENE,63,0.0,0.0,98,0.00,,---,0.20,VWS V14.01,2013-12-23 10:22:00,
2013-12-23 05:27:00,53.6,53.0,27.46,ENE,63,0.0,0.0,98,0.00,,---,0.20,VWS V14.01,2013-12-23 10:27:00,
2013-12-23 05:32:00,53.8,53.2,27.46,ENE,62,0.0,0.0,98,0.00,,---,0.20,VWS V14.01,2013-12-23 10:32:00,
2013-12-23 05:37:00,53.8,53.2,27.46,ENE,62,0.0,0.0,98,0.00,,---,0.20,VWS V14.01,2013-12-23 10:37:00,
2013-12-23 05:42:00,53.8,53.2,27.46,ENE,63,0.0,0.0,98,0.00,,---,0.20,VWS V14.01,2013-12-23 10:42:00,
2013-12-23 05:47:00,53.8,53.2,27.43,ENE,63,0.0,0.0,98,0.00,,---,0.20,VWS V14.01,2013-12-23 10:47:00,
2013-12-23 05:52:00,53.8,53.2,27.43,ENE,63,0.0,0.0,98,0.00,,---,0.20,VWS V14.01,2013-12-23 10:52:00,
2013-12-23 05:57:00,53.8,53.2,27.43,ENE,63,0.0,0.0,98,0.00,,---,0.20,VWS V14.01,2013-12-23 10:57:00,
2013-12-23 06:02:00,53.8,53.2,27.46,ENE,63,0.0,0.0,98,0.00,,---,0.20,VWS V14.01,2013-12-23 11:02:00,
2013-12-23 06:07:00,53.8,53.2,27.46,ENE,62,0.0,0.0,98,0.00,,---,0.20,VWS V14.01,2013-12-23 11:07:00,
2013-12-23 06:12:00,53.8,53.2,27.46,ENE,63,0.0,0.0,98,0.00,,---,0.20,VWS V14.01,2013-12-23 11:12:00,
2013-12-23 06:17:00,53.8,53.2,27.46,ENE,63,0.0,0.0,98,0.00,,---,0.20,VWS V14.01,2013-12-23 11:17:00,
2013-12-23 06:22:00,53.8,53.2,27.46,ENE,63,0.0,0.0,98,0.00,,---,0.20,VWS V14.01,2013-12-23 11:22:00,
2013-12-23 06:27:00,53.8,53.2,27.46,ENE,63,0.0,0.0,98,0.00,,---,0.20,VWS V14.01,2013-12-23 11:27:00,
2013-12-23 06:32:00,53.8,53.2,27.49,ENE,63,0.0,0.0,98,0.00,,---,0.20,VWS V14.01,2013-12-23 11:32:00,
2013-12-23 06:37:00,53.8,53.2,27.49,ENE,63,0.0,0.0,98,0.00,,---,0.20,VWS V14.01,2013-12-23 11:37:00,
2013-12-23 06:42:00,53.8,53.2,27.49,ENE,63,0.0,0.0,98,0.00,,---,0.20,VWS V14.01,2013-12-23 11:42:00,
2013-12-23 06:47:00,53.8,53.2,27.49,ENE,63,0.0,0.0,98,0.00,,---,0.20,VWS V14.01,2013-12-23 11:47:00,
2013-12-23 06:52:00,53.8,53.2,27.49,ENE,63,0.0,0.0,98,0.00,,---,0.20,VWS V14.01,2013-12-23 11:52:00,
2013-12-23 06:57:00,53.6,53.0,27.49,ENE,63,0.0,0.0,98,0.00,,---,0.20,VWS V14.01,2013-12-23 11:57:00,
2013-12-23 07:02:00,53.6,53.0,27.49,ENE,63,0.0,0.0,98,0.00,,---,0.20,VWS V14.01,2013-12-23 12:02:00,
2013-12-23 07:07:00,53.6,53.0,27.49,ENE,63,0.0,0.0,98,0.00,,---,0.20,VWS V14.01,2013-12-23 12:07:00,
2013-12-23 07:12:00,53.6,53.0,27.49,ENE,63,0.0,0.0,98,0.00,,---,0.20,VWS V14.01,2013-12-23 12:12:00,
2013-12-23 07:17:00,53.6,53.0,27.49,ENE,63,0.0,0.0,98,0.00,,---,0.20,VWS V14.01,2013-12-23 12:17:00,
2013-12-23 07:22:00,53.4,52.9,27.49,ENE,63,0.0,0.0,98,0.00,,---,0.20,VWS V14.01,2013-12-23 12:22:00,
2013-12-23 07:27:00,53.4,52.9,27.49,ENE,63,0.0,0.0,98,0.00,,---,0.20,VWS V14.01,2013-12-23 12:27:00,
2013-12-23 07:32:00,53.2,52.7,27.49,ENE,63,0.0,0.0,98,0.00,,---,0.20,VWS V14.01,2013-12-23 12:32:00,
2013-12-23 07:36:00,53.2,52.7,27.49,ESE,102,0.0,0.0,98,0.00,,---,0.20,VWS V14.01,2013-12-23 12:36:00,
2013-12-23 07:41:00,53.2,52.7,27.49,ESE,102,0.0,0.0,98,0.00,,---,0.20,VWS V14.01,2013-12-23 12:41:00,
2013-12-23 07:46:00,53.2,52.7,27.49,ESE,102,0.0,0.0,98,0.00,,---,0.20,VWS V14.01,2013-12-23 12:46:00,
2013-12-23 07:52:00,53.1,52.5,27.49,North,10,0.0,0.0,98,0.00,,---,0.20,VWS V14.01,2013-12-23 12:52:00,
2013-12-23 07:57:00,52.7,52.2,27.49,SE,126,0.0,0.0,98,0.00,,---,0.20,VWS V14.01,2013-12-23 12:57:00,
2013-12-23 08:02:00,52.5,52.0,27.49,South,170,4.0,4.0,98,0.00,,---,0.20,VWS V14.01,2013-12-23 13:02:00,
2013-12-23 08:07:00,52.3,51.8,27.49,NNE,25,0.0,0.0,98,0.00,,---,0.20,VWS V14.01,2013-12-23 13:07:00,
2013-12-23 08:12:00,52.3,51.8,27.49,NNE,25,0.0,0.0,98,0.00,,---,0.20,VWS V14.01,2013-12-23 13:12:00,
2013-12-23 08:17:00,52.2,51.6,27.49,West,262,0.0,0.0,98,0.00,,---,0.20,VWS V14.01,2013-12-23 13:17:00,
2013-12-23 08:22:00,51.8,51.3,27.49,NW,318,0.0,0.0,98,0.00,,---,0.20,VWS V14.01,2013-12-23 13:22:00,
2013-12-23 08:27:00,51.8,51.3,27.49,NNE,31,2.2,2.2,98,0.00,,---,0.20,VWS V14.01,2013-12-23 13:27:00,
2013-12-23 08:32:00,51.6,51.1,27.49,SE,139,4.0,4.0,98,0.00,,---,0.20,VWS V14.01,2013-12-23 13:32:00,
2013-12-23 08:37:00,51.6,51.1,27.49,SE,139,0.0,2.2,98,0.00,,---,0.20,VWS V14.01,2013-12-23 13:37:00,
2013-12-23 08:42:00,51.6,51.1,27.49,SE,139,0.0,0.0,98,0.00,,---,0.20,VWS V14.01,2013-12-23 13:42:00,
2013-12-23 08:46:00,51.6,51.1,27.49,SE,130,2.7,2.7,98,0.00,,---,0.20,VWS V14.01,2013-12-23 13:46:00,
2013-12-23 08:52:00,51.6,51.1,27.49,SE,130,0.0,0.0,98,0.00,,---,0.20,VWS V14.01,2013-12-23 13:52:00,
2013-12-23 08:56:00,51.6,51.1,27.49,SE,130,0.0,0.0,98,0.00,,---,0.20,VWS V14.01,2013-12-23 13:56:00,
2013-12-23 09:01:00,51.4,50.9,27.49,South,177,2.7,2.7,98,0.00,,---,0.20,VWS V14.01,2013-12-23 14:01:00,
2013-12-23 09:06:00,51.3,50.7,27.49,SW,216,0.0,0.0,98,0.00,,---,0.20,VWS V14.01,2013-12-23 14:06:00,
2013-12-23 09:11:00,51.1,50.5,27.49,NE,41,0.0,0.0,98,0.00,,---,0.20,VWS V14.01,2013-12-23 14:11:00,
2013-12-23 09:16:00,51.3,50.7,27.49,SE,144,0.0,0.0,98,0.00,,---,0.20,VWS V14.01,2013-12-23 14:16:00,
2013-12-23 09:21:00,51.4,50.9,27.49,SE,145,0.0,0.0,98,0.00,,---,0.20,VWS V14.01,2013-12-23 14:21:00,
2013-12-23 09:26:00,51.4,50.9,27.49,North,353,3.6,3.6,98,0.00,,---,0.20,VWS V14.01,2013-12-23 14:26:00,
2013-12-23 09:31:00,51.4,50.9,27.52,ESE,117,3.6,3.6,98,0.00,,---,0.20,VWS V14.01,2013-12-23 14:31:00,
2013-12-23 09:36:00,51.3,50.7,27.52,NE,36,0.0,0.0,98,0.00,,---,0.20,VWS V14.01,2013-12-23 14:36:00,
2013-12-23 09:41:00,51.4,50.9,27.52,SE,127,0.0,0.0,98,0.04,,---,0.24,VWS V14.01,2013-12-23 14:41:00,
2013-12-23 09:46:00,51.6,51.1,27.52,SE,127,0.0,0.0,98,0.04,,---,0.24,VWS V14.01,2013-12-23 14:46:00,
2013-12-23 09:51:00,51.8,51.3,27.52,SSE,168,0.0,2.7,98,0.04,,---,0.24,VWS V14.01,2013-12-23 14:51:00,
2013-12-23 09:56:00,51.8,51.3,27.52,SSW,207,0.0,0.0,98,0.04,,---,0.24,VWS V14.01,2013-12-23 14:56:00,
2013-12-23 10:01:00,51.8,51.3,27.52,NE,35,0.0,0.0,98,0.04,,---,0.24,VWS V14.01,2013-12-23 15:01:00,
2013-12-23 10:06:00,51.8,51.3,27.52,NE,35,0.0,2.2,98,0.04,,---,0.24,VWS V14.01,2013-12-23 15:06:00,
2013-12-23 10:12:00,51.8,51.3,27.52,ESE,102,2.7,2.7,98,0.04,,---,0.24,VWS V14.01,2013-12-23 15:12:00,
2013-12-23 10:16:00,51.8,51.3,27.52,South,180,3.1,3.1,98,0.04,,---,0.24,VWS V14.01,2013-12-23 15:16:00,
2013-12-23 10:21:00,52.0,51.4,27.52,SE,126,4.0,4.0,98,0.04,,---,0.24,VWS V14.01,2013-12-23 15:21:00,
2013-12-23 10:26:00,52.0,51.4,27.52,SE,126,3.1,3.1,98,0.04,,---,0.24,VWS V14.01,2013-12-23 15:26:00,
2013-12-23 10:31:00,52.2,51.6,27.52,SE,127,0.0,0.0,98,0.04,,---,0.24,VWS V14.01,2013-12-23 15:31:00,
2013-12-23 10:36:00,52.3,51.8,27.52,SE,126,0.0,0.0,98,0.04,,---,0.24,VWS V14.01,2013-12-23 15:36:00,
2013-12-23 10:41:00,52.2,51.6,27.52,South,177,2.7,4.0,98,0.00,,---,0.24,VWS V14.01,2013-12-23 15:41:00,
2013-12-23 10:46:00,52.0,51.4,27.55,South,175,0.0,0.0,98,0.00,,---,0.24,VWS V14.01,2013-12-23 15:46:00,
2013-12-23 10:51:00,51.8,51.3,27.55,SW,221,0.0,0.0,98,0.00,,---,0.24,VWS V14.01,2013-12-23 15:51:00,
2013-12-23 10:56:00,52.0,51.4,27.55,East,90,0.0,0.0,98,0.00,,---,0.24,VWS V14.01,2013-12-23 15:56:00,
2013-12-23 11:01:00,52.3,51.8,27.52,SE,130,2.2,2.2,98,0.00,,---,0.24,VWS V14.01,2013-12-23 16:01:00,
2013-12-23 11:06:00,52.7,52.2,27.52,East,89,5.4,5.4,98,0.00,,---,0.24,VWS V14.01,2013-12-23 16:06:00,
2013-12-23 11:11:00,52.9,52.3,27.52,NNE,14,3.1,3.1,98,0.00,,---,0.24,VWS V14.01,2013-12-23 16:11:00,
2013-12-23 11:16:00,52.7,52.2,27.52,SE,143,0.0,0.0,98,0.00,,---,0.24,VWS V14.01,2013-12-23 16:16:00,
2013-12-23 11:21:00,52.7,52.2,27.52,NE,34,2.7,2.7,98,0.00,,---,0.24,VWS V14.01,2013-12-23 16:21:00,
2013-12-23 11:27:00,52.5,52.0,27.52,SSE,150,3.1,4.9,98,0.00,,---,0.24,VWS V14.01,2013-12-23 16:27:00,
2013-12-23 11:32:00,52.5,52.0,27.52,NE,53,3.6,3.6,98,0.00,,---,0.24,VWS V14.01,2013-12-23 16:32:00,
2013-12-23 11:37:00,52.0,51.4,27.52,NNE,24,2.7,3.1,98,0.00,,---,0.24,VWS V14.01,2013-12-23 16:37:00,
2013-12-23 11:42:00,51.6,51.1,27.52,ENE,74,8.7,8.7,98,0.00,,---,0.24,VWS V14.01,2013-12-23 16:42:00,
2013-12-23 11:47:00,51.1,50.5,27.52,ENE,76,2.7,2.7,98,0.00,,---,0.24,VWS V14.01,2013-12-23 16:47:00,
2013-12-23 11:52:00,50.9,50.4,27.52,ESE,110,4.0,4.0,98,0.00,,---,0.24,VWS V14.01,2013-12-23 16:52:00,
2013-12-23 11:57:00,50.5,50.0,27.52,ESE,110,4.0,4.0,98,0.00,,---,0.24,VWS V14.01,2013-12-23 16:57:00,
2013-12-23 12:02:00,50.2,49.6,27.52,NNE,15,3.6,3.6,98,0.00,,---,0.24,VWS V14.01,2013-12-23 17:02:00,
2013-12-23 12:07:00,49.8,49.3,27.52,NNE,30,4.0,4.0,98,0.00,,---,0.24,VWS V14.01,2013-12-23 17:07:00,
2013-12-23 12:12:00,49.8,49.3,27.52,WNW,296,2.7,4.0,98,0.00,,---,0.24,VWS V14.01,2013-12-23 17:12:00,
2013-12-23 12:16:00,49.6,49.1,27.52,NNE,23,4.0,4.0,98,0.00,,---,0.24,VWS V14.01,2013-12-23 17:16:00,
2013-12-23 12:22:00,49.3,48.7,27.52,NNE,28,4.9,7.6,98,0.00,,---,0.24,VWS V14.01,2013-12-23 17:22:00,
2013-12-23 12:27:00,48.9,48.4,27.52,West,265,3.6,3.6,98,0.00,,---,0.24,VWS V14.01,2013-12-23 17:27:00,
2013-12-23 12:32:00,48.7,48.2,27.52,ESE,110,2.7,2.7,98,0.00,,---,0.24,VWS V14.01,2013-12-23 17:32:00,
2013-12-23 12:37:00,48.4,47.8,27.52,East,97,0.0,3.6,98,0.00,,---,0.24,VWS V14.01,2013-12-23 17:37:00,
2013-12-23 12:42:00,48.0,47.5,27.52,East,95,3.1,4.0,98,0.00,,---,0.24,VWS V14.01,2013-12-23 17:42:00,
2013-12-23 12:47:00,48.2,47.7,27.52,East,95,3.1,3.6,98,0.00,,---,0.24,VWS V14.01,2013-12-23 17:47:00,
2013-12-23 12:52:00,48.6,48.0,27.52,WSW,240,3.1,3.1,98,0.00,,---,0.24,VWS V14.01,2013-12-23 17:52:00,
2013-12-23 12:57:00,48.6,48.0,27.52,NNE,24,3.1,3.1,98,0.00,,---,0.24,VWS V14.01,2013-12-23 17:57:00,
2013-12-23 13:02:00,48.4,47.8,27.52,SSW,201,2.7,2.7,98,0.00,,---,0.24,VWS V14.01,2013-12-23 18:02:00,
2013-12-23 13:07:00,48.2,47.7,27.52,NNE,16,2.7,2.7,98,0.00,,---,0.24,VWS V14.01,2013-12-23 18:07:00,
2013-12-23 13:12:00,48.2,47.7,27.52,NE,34,3.6,3.6,98,0.00,,---,0.24,VWS V14.01,2013-12-23 18:12:00,
2013-12-23 13:17:00,47.5,47.0,27.52,NNE,21,3.1,3.1,98,0.00,,---,0.24,VWS V14.01,2013-12-23 18:17:00,
2013-12-23 13:22:00,47.1,46.6,27.52,NNE,17,3.1,3.1,98,0.00,,---,0.24,VWS V14.01,2013-12-23 18:22:00,
2013-12-23 13:27:00,46.8,46.0,27.52,SE,141,3.1,3.6,97,0.00,,---,0.24,VWS V14.01,2013-12-23 18:27:00,
2013-12-23 13:32:00,46.8,46.0,27.52,SE,128,5.4,5.4,97,0.00,,---,0.24,VWS V14.01,2013-12-23 18:32:00,
2013-12-23 13:37:00,46.8,46.0,27.52,North,350,0.0,3.6,97,0.00,,---,0.24,VWS V14.01,2013-12-23 18:37:00,
2013-12-23 13:42:00,46.8,46.0,27.52,NW,326,2.7,5.4,97,0.00,,---,0.24,VWS V14.01,2013-12-23 18:42:00,
2013-12-23 13:47:00,46.4,45.3,27.52,NW,311,4.0,4.0,96,0.00,,---,0.24,VWS V14.01,2013-12-23 18:47:00,
2013-12-23 13:52:00,46.4,45.3,27.52,NNE,24,4.9,4.9,96,0.00,,---,0.24,VWS V14.01,2013-12-23 18:52:00,
2013-12-23 13:57:00,46.2,45.2,27.52,NW,323,5.8,5.8,96,0.00,,---,0.24,VWS V14.01,2013-12-23 18:57:00,
2013-12-23 14:02:00,46.4,45.3,27.52,ESE,123,4.9,4.9,96,0.00,,---,0.24,VWS V14.01,2013-12-23 19:02:00,
2013-12-23 14:07:00,46.4,45.0,27.52,SE,126,2.7,2.7,95,0.00,,---,0.24,VWS V14.01,2013-12-23 19:07:00,
2013-12-23 14:12:00,46.4,45.0,27.52,ENE,76,3.1,4.0,95,0.00,,---,0.24,VWS V14.01,2013-12-23 19:12:00,
2013-12-23 14:17:00,46.4,45.0,27.52,SE,139,2.7,3.1,95,0.00,,---,0.24,VWS V14.01,2013-12-23 19:17:00,
2013-12-23 14:22:00,46.6,45.5,27.52,NNW,346,3.1,5.8,96,0.00,,---,0.24,VWS V14.01,2013-12-23 19:22:00,
2013-12-23 14:27:00,46.6,45.2,27.52,NW,305,2.7,2.7,95,0.00,,---,0.24,VWS V14.01,2013-12-23 19:27:00,
2013-12-23 14:32:00,46.6,45.2,27.52,NNE,30,3.1,4.0,95,0.00,,---,0.24,VWS V14.01,2013-12-23 19:32:00,
2013-12-23 14:37:00,46.4,45.0,27.52,ENE,74,3.6,3.6,95,0.00,,---,0.24,VWS V14.01,2013-12-23 19:37:00,
2013-12-23 14:42:00,46.4,44.8,27.52,NNE,22,3.1,3.1,94,0.00,,---,0.24,VWS V14.01,2013-12-23 19:42:00,
2013-12-23 14:47:00,46.4,44.8,27.52,WSW,244,2.7,2.7,94,0.00,,---,0.24,VWS V14.01,2013-12-23 19:47:00,
2013-12-23 14:52:00,46.2,44.6,27.52,North,2,2.7,4.9,94,0.00,,---,0.24,VWS V14.01,2013-12-23 19:52:00,
2013-12-23 14:57:00,45.9,44.2,27.52,SE,139,5.4,5.4,94,0.00,,---,0.24,VWS V14.01,2013-12-23 19:57:00,
2013-12-23 15:02:00,45.5,43.9,27.52,East,89,3.1,4.0,94,0.00,,---,0.24,VWS V14.01,2013-12-23 20:02:00,
2013-12-23 15:07:00,45.3,43.4,27.52,NNE,19,3.1,3.6,93,0.00,,---,0.24,VWS V14.01,2013-12-23 20:07:00,
2013-12-23 15:12:00,45.1,43.2,27.52,ENE,75,4.0,5.4,93,0.00,,---,0.24,VWS V14.01,2013-12-23 20:12:00,
2013-12-23 15:17:00,45.1,43.2,27.52,NNE,14,3.1,4.0,93,0.00,,---,0.24,VWS V14.01,2013-12-23 20:17:00,
2013-12-23 15:22:00,45.1,43.2,27.52,NNE,17,3.1,3.1,93,0.00,,---,0.24,VWS V14.01,2013-12-23 20:22:00,
2013-12-23 15:27:00,44.8,42.6,27.52,NNW,330,0.0,0.0,92,0.00,,---,0.24,VWS V14.01,2013-12-23 20:27:00,
2013-12-23 15:32:00,44.8,42.6,27.55,ENE,59,3.6,3.6,92,0.00,,---,0.24,VWS V14.01,2013-12-23 20:32:00,
2013-12-23 15:37:00,44.8,42.6,27.55,ESE,112,2.7,3.1,92,0.00,,---,0.24,VWS V14.01,2013-12-23 20:37:00,
2013-12-23 15:42:00,44.6,42.4,27.55,East,93,2.2,3.1,92,0.00,,---,0.24,VWS V14.01,2013-12-23 20:42:00,
2013-12-23 15:47:00,44.4,42.2,27.55,ESE,118,2.7,4.0,92,0.00,,---,0.24,VWS V14.01,2013-12-23 20:47:00,
2013-12-23 15:52:00,44.2,42.1,27.55,ENE,63,4.0,6.3,92,0.00,,---,0.24,VWS V14.01,2013-12-23 20:52:00,
2013-12-23 15:57:00,44.1,41.9,27.55,NE,46,3.6,3.6,92,0.00,,---,0.24,VWS V14.01,2013-12-23 20:57:00,
2013-12-23 16:02:00,43.9,41.4,27.55,NNW,345,4.9,4.9,91,0.00,,---,0.24,VWS V14.01,2013-12-23 21:02:00,
2013-12-23 16:07:00,43.7,41.2,27.55,West,280,8.1,8.1,91,0.00,,---,0.24,VWS V14.01,2013-12-23 21:07:00,
2013-12-23 16:12:00,43.3,40.6,27.55,North,0,3.6,3.6,90,0.00,,---,0.24,VWS V14.01,2013-12-23 21:12:00,
2013-12-23 16:17:00,43.3,40.6,27.55,NE,46,4.0,5.8,90,0.00,,---,0.24,VWS V14.01,2013-12-23 21:17:00,
2013-12-23 16:22:00,43.2,40.4,27.55,NE,51,3.6,4.0,90,0.00,,---,0.24,VWS V14.01,2013-12-23 21:22:00,
2013-12-23 16:27:00,43.0,40.2,27.55,WNW,287,2.7,3.1,90,0.00,,---,0.24,VWS V14.01,2013-12-23 21:27:00,
2013-12-23 16:32:00,43.0,40.0,27.55,NE,48,2.2,2.7,89,0.00,,---,0.24,VWS V14.01,2013-12-23 21:32:00,
2013-12-23 16:37:00,42.8,40.1,27.55,ENE,72,3.6,4.9,90,0.00,,---,0.24,VWS V14.01,2013-12-23 21:37:00,
2013-12-23 16:42:00,42.4,39.7,27.55,SE,125,2.2,4.0,90,0.00,,---,0.24,VWS V14.01,2013-12-23 21:42:00,
2013-12-23 16:47:00,42.4,39.7,27.55,East,91,10.5,11.9,90,0.00,,---,0.24,VWS V14.01,2013-12-23 21:47:00,
2013-12-23 16:52:00,42.3,39.3,27.55,SSE,159,2.7,4.9,89,0.00,,---,0.24,VWS V14.01,2013-12-23 21:52:00,
2013-12-23 16:57:00,42.1,39.4,27.55,WSW,257,4.0,5.8,90,0.00,,---,0.24,VWS V14.01,2013-12-23 21:57:00,
2013-12-23 17:02:00,41.9,39.2,27.55,NW,321,2.7,2.7,90,0.00,,---,0.24,VWS V14.01,2013-12-23 22:02:00,
2013-12-23 17:07:00,41.9,39.2,27.55,West,272,3.6,3.6,90,0.00,,---,0.24,VWS V14.01,2013-12-23 22:07:00,
2013-12-23 17:12:00,41.7,38.7,27.55,WSW,253,3.6,4.0,89,0.00,,---,0.24,VWS V14.01,2013-12-23 22:12:00,
2013-12-23 17:17:00,41.5,38.5,27.55,South,189,3.6,3.6,89,0.00,,---,0.24,VWS V14.01,2013-12-23 22:17:00,
2013-12-23 17:22:00,41.5,38.8,27.55,NNW,331,3.1,3.1,90,0.00,,---,0.24,VWS V14.01,2013-12-23 22:22:00,
2013-12-23 17:27:00,41.4,38.7,27.55,NW,314,4.0,4.0,90,0.00,,---,0.24,VWS V14.01,2013-12-23 22:27:00,
2013-12-23 17:32:00,41.2,38.5,27.55,North,0,3.1,4.9,90,0.00,,---,0.24,VWS V14.01,2013-12-23 22:32:00,
2013-12-23 17:37:00,41.0,38.3,27.55,East,79,5.4,5.4,90,0.00,,---,0.24,VWS V14.01,2013-12-23 22:37:00,
2013-12-23 17:42:00,41.0,38.3,27.55,SE,145,3.6,3.6,90,0.00,,---,0.24,VWS V14.01,2013-12-23 22:42:00,
2013-12-23 17:47:00,40.6,37.9,27.55,SSE,165,2.2,4.0,90,0.00,,---,0.24,VWS V14.01,2013-12-23 22:47:00,
2013-12-23 17:52:00,40.6,37.9,27.55,WNW,298,5.4,8.1,90,0.00,,---,0.24,VWS V14.01,2013-12-23 22:52:00,
2013-12-23 17:57:00,40.5,37.8,27.55,West,273,3.6,8.3,90,0.00,,---,0.24,VWS V14.01,2013-12-23 22:57:00,
2013-12-23 18:02:00,40.3,37.9,27.55,South,183,3.1,3.1,91,0.00,,---,0.24,VWS V14.01,2013-12-23 23:02:00,
2013-12-23 18:07:00,40.3,37.9,27.55,West,269,5.4,5.4,91,0.00,,---,0.24,VWS V14.01,2013-12-23 23:07:00,
2013-12-23 18:12:00,40.1,38.0,27.55,NE,54,4.9,4.9,92,0.00,,---,0.24,VWS V14.01,2013-12-23 23:12:00,
2013-12-23 18:17:00,40.1,38.0,27.58,SSE,158,3.1,3.6,92,0.00,,---,0.24,VWS V14.01,2013-12-23 23:17:00,
2013-12-23 18:22:00,40.1,38.0,27.58,NE,54,4.5,4.5,92,0.00,,---,0.24,VWS V14.01,2013-12-23 23:22:00,
2013-12-23 18:27:00,39.9,37.8,27.58,ENE,61,5.8,6.3,92,0.00,,---,0.24,VWS V14.01,2013-12-23 23:27:00,
2013-12-23 18:32:00,39.7,37.6,27.58,ESE,103,2.7,2.7,92,0.00,,---,0.24,VWS V14.01,2013-12-23 23:32:00,
2013-12-23 18:37:00,39.7,37.6,27.58,ESE,104,8.3,8.3,92,0.00,,---,0.08,VWS V14.01,2013-12-23 23:37:00,
2013-12-23 18:42:00,39.7,37.6,27.58,ESE,111,4.0,4.0,92,0.00,,---,0.24,VWS V14.01,2013-12-23 23:42:00,
2013-12-23 18:47:00,39.6,37.4,27.58,West,263,5.8,5.8,92,0.00,,---,0.24,VWS V14.01,2013-12-23 23:47:00,
2013-12-23 18:52:00,39.6,37.4,27.58,NW,311,2.7,4.9,92,0.00,,---,0.24,VWS V14.01,2013-12-23 23:52:00,
2013-12-23 18:57:00,39.4,37.2,27.58,ESE,104,7.6,7.6,92,0.00,,---,0.24,VWS V14.01,2013-12-23 23:57:00,
2013-12-23 19:02:00,39.2,37.1,27.58,NE,55,10.1,10.1,92,0.00,,---,0.24,VWS V14.01,2013-12-24 00:02:00,
2013-12-23 19:07:00,39.2,37.1,27.58,NNE,29,6.3,6.3,92,0.00,,---,0.24,VWS V14.01,2013-12-24 00:07:00,
2013-12-23 19:12:00,39.2,37.1,27.58,North,2,4.0,5.4,92,0.00,,---,0.24,VWS V14.01,2013-12-24 00:12:00,
2013-12-23 19:17:00,39.0,36.9,27.58,North,0,2.7,3.1,92,0.00,,---,0.24,VWS V14.01,2013-12-24 00:17:00,
2013-12-23 19:22:00,38.8,36.7,27.58,NW,305,5.4,6.3,92,0.00,,---,0.24,VWS V14.01,2013-12-24 00:22:00,
2013-12-23 19:27:00,38.8,36.7,27.58,North,0,2.7,5.4,92,0.00,,---,0.24,VWS V14.01,2013-12-24 00:27:00,
2013-12-23 19:32:00,38.8,36.7,27.58,WNW,287,3.1,3.1,92,0.00,,---,0.24,VWS V14.01,2013-12-24 00:32:00,
2013-12-23 19:37:00,38.7,36.5,27.58,West,281,10.1,10.1,92,0.00,,---,0.24,VWS V14.01,2013-12-24 00:37:00,
2013-12-23 19:42:00,38.7,36.3,27.58,NE,35,2.7,5.8,91,0.00,,---,0.24,VWS V14.01,2013-12-24 00:42:00,
2013-12-23 19:47:00,38.7,36.3,27.58,SE,135,2.7,2.7,91,0.00,,---,0.24,VWS V14.01,2013-12-24 00:47:00,
2013-12-23 19:52:00,38.7,36.3,27.58,NW,310,6.3,8.1,91,0.00,,---,0.24,VWS V14.01,2013-12-24 00:52:00,
2013-12-23 19:57:00,38.5,35.8,27.58,ESE,103,3.1,3.1,90,0.00,,---,0.24,VWS V14.01,2013-12-24 00:57:00,
2013-12-23 20:02:00,38.5,35.8,27.58,NNW,330,3.1,4.0,90,0.00,,---,0.24,VWS V14.01,2013-12-24 01:02:00,
2013-12-23 20:07:00,38.5,35.8,27.58,WSW,238,0.0,3.1,90,0.00,,---,0.24,VWS V14.01,2013-12-24 01:07:00,
2013-12-23 20:12:00,38.5,35.8,27.58,SSE,158,2.7,2.7,90,0.00,,---,0.24,VWS V14.01,2013-12-24 01:12:00,
2013-12-23 20:17:00,38.3,35.3,27.58,NNW,334,3.1,3.1,89,0.00,,---,0.24,VWS V14.01,2013-12-24 01:17:00,
2013-12-23 20:22:00,38.1,35.2,27.58,NNE,27,2.7,3.1,89,0.00,,---,0.24,VWS V14.01,2013-12-24 01:22:00,
2013-12-23 20:27:00,38.1,35.2,27.58,WNW,289,4.9,4.9,89,0.00,,---,0.24,VWS V14.01,2013-12-24 01:27:00,
2013-12-23 20:32:00,38.1,35.2,27.58,NNW,345,2.7,8.1,89,0.00,,---,0.24,VWS V14.01,2013-12-24 01:32:00,
2013-12-23 20:37:00,38.1,35.2,27.58,East,91,4.5,4.5,89,0.00,,---,0.24,VWS V14.01,2013-12-24 01:37:00,
2013-12-23 20:42:00,38.1,34.9,27.58,WNW,300,2.7,3.1,88,0.00,,---,0.24,VWS V14.01,2013-12-24 01:42:00,
2013-12-23 20:47:00,38.1,34.9,27.58,NE,42,3.6,5.4,88,0.00,,---,0.24,VWS V14.01,2013-12-24 01:47:00,
2013-12-23 20:51:00,37.9,34.7,27.58,North,357,5.8,5.8,88,0.00,,---,0.24,VWS V14.01,2013-12-24 01:51:00,
2013-12-23 20:56:00,37.8,34.5,27.58,SW,220,3.1,3.6,88,0.00,,---,0.24,VWS V14.01,2013-12-24 01:56:00,
2013-12-23 21:01:00,37.4,34.2,27.58,SSE,159,2.7,3.1,88,0.00,,---,0.24,VWS V14.01,2013-12-24 02:01:00,
2013-12-23 21:06:00,36.9,33.7,27.58,SE,129,7.6,7.6,88,0.00,,---,0.24,VWS V14.01,2013-12-24 02:06:00,
2013-12-23 21:11:00,36.7,33.5,27.58,SE,126,4.0,5.4,88,0.00,,---,0.24,VWS V14.01,2013-12-24 02:11:00,
2013-12-23 21:16:00,36.3,33.4,27.58,ESE,117,3.6,3.6,89,0.00,,---,0.24,VWS V14.01,2013-12-24 02:16:00,
2013-12-23 21:21:00,36.0,33.0,27.58,NNE,24,4.0,6.3,89,0.00,,---,0.24,VWS V14.01,2013-12-24 02:21:00,
2013-12-23 21:26:00,36.1,33.5,27.58,SE,127,2.7,2.7,90,0.00,,---,0.24,VWS V14.01,2013-12-24 02:26:00,
2013-12-23 21:31:00,36.1,33.8,27.58,ENE,57,4.0,4.9,91,0.00,,---,0.24,VWS V14.01,2013-12-24 02:31:00,
2013-12-23 21:36:00,36.1,33.5,27.58,North,1,2.7,2.7,90,0.00,,---,0.24,VWS V14.01,2013-12-24 02:36:00,
2013-12-23 21:41:00,36.1,33.8,27.58,ESE,114,4.9,5.8,91,0.00,,---,0.24,VWS V14.01,2013-12-24 02:41:00,
2013-12-23 21:46:00,36.0,33.6,27.58,NE,52,5.4,5.4,91,0.00,,---,0.24,VWS V14.01,2013-12-24 02:46:00,
2013-12-23 21:51:00,36.0,33.6,27.58,ENE,74,2.2,3.1,91,0.00,,---,0.24,VWS V14.01,2013-12-24 02:51:00,
2013-12-23 21:56:00,36.0,33.6,27.58,WNW,302,3.6,3.6,91,0.00,,---,0.24,VWS V14.01,2013-12-24 02:56:00,
2013-12-23 22:01:00,35.8,33.1,27.58,NNE,19,5.4,5.4,90,0.00,,---,0.24,VWS V14.01,2013-12-24 03:01:00,
2013-12-23 22:06:00,35.8,33.1,27.58,NW,326,5.8,5.8,90,0.00,,---,0.24,VWS V14.01,2013-12-24 03:06:00,
2013-12-23 22:11:00,35.6,33.0,27.58,NNW,329,2.7,6.3,90,0.00,,---,0.24,VWS V14.01,2013-12-24 03:11:00,
2013-12-23 22:16:00,35.4,32.8,27.61,SE,132,4.0,4.0,90,0.00,,---,0.24,VWS V14.01,2013-12-24 03:16:00,
2013-12-23 22:21:00,35.2,32.6,27.61,ESE,117,0.0,5.4,90,0.00,,---,0.24,VWS V14.01,2013-12-24 03:21:00,
2013-12-23 22:26:00,35.1,32.4,27.61,NNW,343,2.7,5.8,90,0.00,,---,0.24,VWS V14.01,2013-12-24 03:26:00,
2013-12-23 22:31:00,35.1,32.2,27.61,SSE,148,3.1,3.1,89,0.00,,---,0.24,VWS V14.01,2013-12-24 03:31:00,
2013-12-23 22:36:00,34.9,32.0,27.61,ENE,71,4.0,4.0,89,0.00,,---,0.24,VWS V14.01,2013-12-24 03:36:00,
2013-12-23 22:41:00,34.9,31.7,27.61,ESE,115,2.7,2.7,88,0.00,,---,0.24,VWS V14.01,2013-12-24 03:41:00,
2013-12-23 22:46:00,34.9,31.7,27.61,NE,56,2.7,4.0,88,0.00,,---,0.24,VWS V14.01,2013-12-24 03:46:00,
2013-12-23 22:51:00,34.7,31.5,27.61,SE,124,5.8,5.8,88,0.00,,---,0.24,VWS V14.01,2013-12-24 03:51:00,
2013-12-23 22:56:00,34.7,31.5,27.61,East,89,4.0,4.0,88,0.00,,---,0.24,VWS V14.01,2013-12-24 03:56:00,
2013-12-23 23:01:00,34.7,31.5,27.58,NE,54,7.6,7.6,88,0.00,,---,0.24,VWS V14.01,2013-12-24 04:01:00,
2013-12-23 23:06:00,34.5,31.3,27.58,ESE,106,2.7,2.7,88,0.00,,---,0.24,VWS V14.01,2013-12-24 04:06:00,
2013-12-23 23:11:00,34.5,31.6,27.58,ESE,116,5.4,6.7,89,0.00,,---,0.24,VWS V14.01,2013-12-24 04:11:00,
2013-12-23 23:16:00,34.5,31.6,27.61,SW,221,5.8,5.8,89,0.00,,---,0.24,VWS V14.01,2013-12-24 04:16:00,
2013-12-23 23:21:00,34.3,31.4,27.61,NE,35,5.4,5.8,89,0.00,,---,0.24,VWS V14.01,2013-12-24 04:21:00,
2013-12-23 23:26:00,34.2,31.5,27.61,ESE,122,2.7,3.6,90,0.00,,---,0.24,VWS V14.01,2013-12-24 04:26:00,
2013-12-23 23:31:00,34.2,31.5,27.58,NE,37,5.4,5.4,90,0.00,,---,0.24,VWS V14.01,2013-12-24 04:31:00,
2013-12-23 23:36:00,34.0,31.4,27.58,ENE,57,3.6,4.0,90,0.00,,---,0.24,VWS V14.01,2013-12-24 04:36:00,
2013-12-23 23:41:00,34.0,31.4,27.58,ENE,78,3.1,3.1,90,0.00,,---,0.24,VWS V14.01,2013-12-24 04:41:00,
2013-12-23 23:46:00,34.2,31.5,27.58,East,91,4.0,5.4,90,0.00,,---,0.24,VWS V14.01,2013-12-24 04:46:00,
2013-12-23 23:51:00,34.0,31.4,27.58,South,170,4.9,4.9,90,0.00,,---,0.24,VWS V14.01,2013-12-24 04:51:00,
2013-12-23 23:56:00,34.0,31.4,27.58,SSE,150,3.6,4.9,90,0.00,,---,0.24,VWS V14.01,2013-12-24 04:56:00,